createdAt,value
2022-10-18T00:00:01.624Z,15.57
2022-10-18T00:07:01.873Z,15.64
2022-10-18T00:14:02.110Z,15.64
2022-10-18T00:21:01.871Z,15.66
2022-10-18T00:28:01.416Z,15.66
2022-10-18T00:35:02.064Z,15.65
2022-10-18T00:42:03.927Z,15.65
2022-10-18T00:49:02.286Z,15.66
2022-10-18T00:56:01.901Z,15.66
2022-10-18T01:00:02.511Z,15.64
2022-10-18T01:07:02.129Z,15.64
2022-10-18T01:14:02.249Z,15.62
2022-10-18T01:21:02.321Z,15.62
2022-10-18T01:28:01.801Z,15.64
2022-10-18T01:35:02.191Z,15.64
2022-10-18T01:42:01.865Z,15.64
2022-10-18T01:49:01.921Z,15.58
2022-10-18T01:56:01.443Z,15.58
2022-10-18T02:00:02.114Z,15.58
2022-10-18T02:07:02.263Z,15.62
2022-10-18T02:14:01.639Z,15.62
2022-10-18T02:21:02.123Z,15.61
2022-10-18T02:28:01.717Z,15.61
2022-10-18T02:35:02.190Z,15.61
2022-10-18T02:42:01.972Z,15.59
2022-10-18T02:49:02.051Z,15.59
2022-10-18T02:56:01.779Z,15.58
2022-10-18T03:00:02.421Z,15.58
2022-10-18T03:07:01.689Z,15.58
2022-10-18T03:14:01.642Z,15.58
2022-10-18T03:21:02.059Z,15.58
2022-10-18T04:00:02.229Z,15.55
2022-10-18T04:07:02.148Z,15.55
2022-10-18T04:14:01.724Z,15.55
2022-10-18T04:21:01.566Z,15.55
2022-10-18T04:28:02.226Z,15.58
2022-10-18T04:35:02.572Z,15.58
2022-10-18T04:42:01.635Z,15.58
2022-10-18T04:49:01.682Z,15.57
2022-10-18T04:56:01.737Z,15.57
2022-10-18T05:00:02.385Z,15.57
2022-10-18T05:07:01.515Z,15.57
2022-10-18T05:14:01.426Z,15.57
2022-10-18T05:21:01.952Z,15.59
2022-10-18T05:28:10.496Z,15.59
2022-10-18T05:35:02.592Z,15.59
2022-10-18T05:42:02.288Z,15.59
2022-10-18T06:07:01.380Z,15.66
2022-10-18T06:14:01.572Z,15.66
2022-10-18T06:21:01.634Z,15.65
2022-10-18T06:28:01.832Z,15.65
2022-10-18T06:35:01.651Z,15.64
2022-10-18T06:42:02.120Z,15.64
2022-10-18T06:49:01.659Z,15.64
2022-10-18T06:56:01.657Z,15.64
2022-10-18T07:00:02.363Z,15.64
2022-10-18T07:07:01.825Z,15.64
2022-10-18T07:14:01.674Z,15.64
2022-10-18T07:21:01.653Z,15.64
2022-10-18T07:28:02.210Z,15.64
2022-10-18T07:35:02.304Z,15.64
2022-10-18T07:42:02.017Z,15.64
2022-10-18T07:49:01.935Z,15.64
2022-10-18T08:42:01.989Z,15.76
2022-10-18T08:49:01.794Z,15.76
2022-10-18T08:56:01.680Z,15.78
2022-10-18T09:00:02.206Z,15.78
2022-10-18T09:07:01.611Z,15.82
2022-10-18T09:14:01.950Z,15.82
2022-10-18T09:21:01.665Z,15.82
2022-10-18T09:28:02.147Z,15.82
2022-10-18T09:35:02.513Z,15.89
2022-10-18T09:42:01.730Z,15.89
2022-10-18T09:49:01.397Z,15.91
2022-10-18T09:56:02.021Z,15.91
2022-10-18T10:00:01.669Z,15.96
2022-10-18T10:07:02.292Z,15.96
2022-10-18T10:14:01.898Z,15.95
2022-10-18T10:21:01.419Z,15.95
2022-10-18T10:28:01.757Z,15.99
2022-10-18T10:35:01.962Z,15.99
2022-10-18T10:42:01.429Z,16.01
2022-10-18T10:49:27.952Z,16.01
2022-10-18T10:56:01.496Z,16.01
2022-10-18T11:00:02.173Z,16.01
2022-10-18T11:07:01.736Z,16.05
2022-10-18T11:14:20.940Z,16.05
2022-10-18T11:21:01.393Z,16.1
2022-10-18T11:28:01.650Z,16.1
2022-10-18T11:35:01.712Z,16.1
2022-10-18T11:42:01.843Z,16.13
2022-10-18T11:49:01.951Z,16.13
2022-10-18T11:56:02.067Z,16.13
2022-10-18T12:00:01.668Z,16.13
2022-10-18T12:07:01.706Z,16.14
2022-10-18T12:14:01.552Z,16.14
2022-10-18T12:21:02.071Z,16.14
2022-10-18T12:28:02.152Z,16.14
2022-10-18T12:35:02.083Z,16.15
2022-10-18T12:42:02.248Z,16.15
2022-10-18T12:49:01.657Z,16.14
2022-10-18T12:56:02.152Z,16.14
2022-10-18T13:00:01.690Z,16.14
2022-10-18T13:07:02.164Z,16.14
2022-10-18T13:14:01.448Z,16.14
2022-10-18T13:21:02.300Z,16.14
2022-10-18T13:28:01.995Z,16.16
2022-10-18T13:35:01.886Z,16.16
2022-10-18T13:42:01.913Z,16.18
2022-10-18T13:49:01.947Z,16.18
2022-10-18T13:56:01.473Z,16.18
2022-10-18T14:00:02.044Z,16.18
2022-10-18T14:07:02.498Z,16.18
2022-10-18T14:14:01.478Z,16.18
2022-10-18T14:21:13.337Z,16.15
2022-10-18T14:28:01.541Z,16.17
2022-10-18T14:35:30.528Z,16.17
2022-10-18T14:42:01.452Z,16.17
2022-10-18T14:49:01.598Z,16.17
2022-10-18T14:56:01.705Z,16.17
2022-10-18T15:00:02.377Z,16.17
2022-10-18T15:07:01.377Z,16.17
2022-10-18T15:21:02.329Z,16.06
2022-10-18T15:28:02.230Z,16.06
2022-10-18T15:35:02.372Z,16.06
2022-10-18T15:42:02.102Z,16.06
2022-10-18T15:49:01.897Z,16.01
2022-10-18T15:56:01.378Z,16.01
2022-10-18T16:00:02.117Z,15.98
2022-10-18T16:07:01.657Z,15.98
2022-10-18T16:14:01.367Z,15.95
2022-10-18T16:21:01.560Z,15.95
2022-10-18T16:28:02.294Z,15.88
2022-10-18T16:35:02.359Z,15.88
2022-10-18T16:42:01.465Z,15.79
2022-10-18T16:49:02.021Z,15.79
2022-10-18T16:56:01.776Z,15.68
2022-10-18T17:00:02.589Z,15.68
2022-10-18T17:07:01.755Z,15.58
2022-10-18T17:14:01.882Z,15.58
2022-10-18T17:21:01.636Z,15.58
2022-10-18T17:28:02.262Z,15.37
2022-10-18T17:35:02.198Z,15.37
2022-10-18T17:42:02.290Z,15.37
2022-10-18T17:49:01.515Z,15.37
2022-10-18T17:56:02.622Z,15.37
2022-10-18T19:28:01.634Z,14.28
2022-10-18T19:35:01.762Z,14.28
2022-10-18T19:42:01.840Z,14.13
2022-10-18T19:49:01.901Z,14.02
2022-10-18T19:56:02.037Z,14.02
2022-10-18T20:00:02.629Z,14.02
2022-10-18T20:07:01.798Z,13.93
2022-10-18T20:14:02.183Z,13.93
2022-10-18T20:21:01.707Z,13.93
2022-10-18T20:28:02.234Z,13.78
2022-10-18T20:35:01.996Z,13.78
2022-10-18T20:42:02.289Z,13.74
2022-10-18T20:49:02.227Z,13.74
2022-10-18T20:56:01.637Z,13.74
2022-10-18T21:00:02.348Z,13.74
2022-10-18T21:07:01.942Z,13.59
2022-10-18T21:14:01.665Z,13.59
2022-10-18T21:21:02.298Z,13.52
2022-10-18T21:28:01.778Z,13.52
2022-10-18T21:35:01.868Z,13.45
2022-10-18T21:42:01.959Z,13.45
2022-10-18T21:49:02.030Z,13.42
2022-10-18T21:56:01.893Z,13.42
2022-10-18T22:00:02.548Z,13.33
2022-10-18T22:07:01.607Z,13.33
2022-10-18T22:14:02.294Z,13.13
2022-10-18T22:21:02.271Z,13.13
2022-10-18T22:28:02.103Z,13.02
2022-10-18T22:35:02.205Z,13.02
2022-10-18T22:42:01.373Z,12.86
2022-10-18T22:49:01.671Z,12.73
2022-10-18T22:56:02.168Z,12.73
2022-10-18T23:00:01.779Z,12.73
2022-10-18T23:07:02.022Z,12.65
2022-10-18T23:14:01.951Z,12.65
2022-10-18T23:21:02.230Z,12.57
2022-10-18T23:28:01.386Z,12.4
2022-10-18T23:35:02.271Z,12.4
2022-10-18T23:42:01.689Z,12.34
2022-10-18T23:49:01.763Z,12.34
2022-10-18T23:56:01.407Z,12.24
